sensor_id;sensor_type;location;lat;lon;timestamp;pressure;altitude;pressure_sealevel;temperature;humidity
13124;BME280;6627;50.920;12.050;2023-08-06T00:00:33;98547.28;;;28.31;45.06
13124;BME280;6627;50.920;12.050;2023-08-06T00:03:07;98646.25;;;30.22;42.76
13124;BME280;6627;50.920;12.050;2023-08-06T00:05:43;98604.16;;;29.40;43.50
13124;BME280;6627;50.920;12.050;2023-08-06T00:08:15;98553.16;;;29.40;42.89
13124;BME280;6627;50.920;12.050;2023-08-06T00:10:47;98562.91;;;28.49;44.41
13124;BME280;6627;50.920;12.050;2023-08-06T00:13:21;98663.94;;;29.79;43.28
13124;BME280;6627;50.920;12.050;2023-08-06T00:15:53;98504.91;;;29.23;42.00
13124;BME280;6627;50.920;12.050;2023-08-06T00:18:25;98554.78;;;29.37;42.24
13124;BME280;6627;50.920;12.050;2023-08-06T00:20:58;98489.03;;;28.80;42.17
13124;BME280;6627;50.920;12.050;2023-08-06T00:23:28;98548.31;;;29.24;42.53
13124;BME280;6627;50.920;12.050;2023-08-06T00:26:00;98487.25;;;28.50;42.99
13124;BME280;6627;50.920;12.050;2023-08-06T00:28:30;98472.69;;;28.62;42.21
13124;BME280;6627;50.920;12.050;2023-08-06T00:30:58;98510.63;;;29.16;41.34
13124;BME280;6627;50.920;12.050;2023-08-06T00:33:33;98465.94;;;28.80;41.42
13124;BME280;6627;50.920;12.050;2023-08-06T00:36:04;98481.09;;;29.19;40.46
13124;BME280;6627;50.920;12.050;2023-08-06T00:38:36;98438.69;;;28.08;42.05
13124;BME280;6627;50.920;12.050;2023-08-06T00:41:07;98527.59;;;29.41;40.23
13124;BME280;6627;50.920;12.050;2023-08-06T00:43:39;98522.94;;;30.36;38.51
13124;BME280;6627;50.920;12.050;2023-08-06T00:46:10;98458.13;;;29.11;40.20
13124;BME280;6627;50.920;12.050;2023-08-06T00:48:40;98480.03;;;29.98;38.59
13124;BME280;6627;50.920;12.050;2023-08-06T00:51:13;98522.44;;;30.25;38.69
13124;BME280;6627;50.920;12.050;2023-08-06T00:53:49;98430.09;;;29.51;38.96
13124;BME280;6627;50.920;12.050;2023-08-06T00:56:21;98414.34;;;30.22;37.82
13124;BME280;6627;50.920;12.050;2023-08-06T00:58:54;98399.69;;;30.18;37.58
13124;BME280;6627;50.920;12.050;2023-08-06T01:01:24;98418.00;;;30.19;37.75
13124;BME280;6627;50.920;12.050;2023-08-06T01:03:56;98458.91;;;30.42;38.22
13124;BME280;6627;50.920;12.050;2023-08-06T01:06:39;98488.34;;;30.47;38.79
13124;BME280;6627;50.920;12.050;2023-08-06T01:09:33;98376.81;;;29.78;38.14
13124;BME280;6627;50.920;12.050;2023-08-06T01:12:18;98368.53;;;29.25;38.90
13124;BME280;6627;50.920;12.050;2023-08-06T01:15:02;98378.28;;;29.17;39.45
13124;BME280;6627;50.920;12.050;2023-08-06T01:17:37;98419.09;;;29.44;39.94
13124;BME280;6627;50.920;12.050;2023-08-06T01:20:09;98376.56;;;29.23;39.51
13124;BME280;6627;50.920;12.050;2023-08-06T01:22:39;98379.00;;;29.37;39.23
13124;BME280;6627;50.920;12.050;2023-08-06T01:25:10;98433.09;;;29.60;39.66
13124;BME280;6627;50.920;12.050;2023-08-06T01:27:47;98395.59;;;29.61;38.85
13124;BME280;6627;50.920;12.050;2023-08-06T01:30:26;98364.28;;;29.04;40.10
13124;BME280;6627;50.920;12.050;2023-08-06T01:33:00;98396.50;;;28.69;41.24
13124;BME280;6627;50.920;12.050;2023-08-06T01:35:38;98382.84;;;28.55;41.24
13124;BME280;6627;50.920;12.050;2023-08-06T01:38:09;98378.94;;;28.52;41.18
13124;BME280;6627;50.920;12.050;2023-08-06T01:40:41;98402.22;;;28.62;40.98
13124;BME280;6627;50.920;12.050;2023-08-06T01:43:09;98402.81;;;28.89;40.79
13124;BME280;6627;50.920;12.050;2023-08-06T01:45:41;98392.31;;;28.77;41.19
13124;BME280;6627;50.920;12.050;2023-08-06T01:48:09;98356.28;;;28.30;41.59
13124;BME280;6627;50.920;12.050;2023-08-06T01:50:41;98362.78;;;28.24;41.93
13124;BME280;6627;50.920;12.050;2023-08-06T01:53:14;98438.72;;;28.87;41.13
13124;BME280;6627;50.920;12.050;2023-08-06T01:55:48;98361.78;;;28.54;41.06
13124;BME280;6627;50.920;12.050;2023-08-06T01:58:17;98428.75;;;28.86;41.25
13124;BME280;6627;50.920;12.050;2023-08-06T02:00:46;98361.16;;;28.26;41.65
13124;BME280;6627;50.920;12.050;2023-08-06T02:03:13;98406.66;;;28.39;42.21
13124;BME280;6627;50.920;12.050;2023-08-06T02:05:43;98384.06;;;28.14;42.44
13124;BME280;6627;50.920;12.050;2023-08-06T02:08:19;98391.88;;;28.43;42.29
13124;BME280;6627;50.920;12.050;2023-08-06T02:10:48;98365.41;;;28.11;42.11
13124;BME280;6627;50.920;12.050;2023-08-06T02:13:20;98412.00;;;28.50;42.11
13124;BME280;6627;50.920;12.050;2023-08-06T02:15:47;98393.66;;;28.53;41.87
13124;BME280;6627;50.920;12.050;2023-08-06T02:18:17;98384.06;;;28.34;42.35
13124;BME280;6627;50.920;12.050;2023-08-06T02:20:56;98414.63;;;28.97;41.49
13124;BME280;6627;50.920;12.050;2023-08-06T02:23:27;98407.50;;;29.12;41.34
13124;BME280;6627;50.920;12.050;2023-08-06T02:25:59;98381.06;;;28.64;41.77
13124;BME280;6627;50.920;12.050;2023-08-06T02:28:32;98386.78;;;28.94;41.23
13124;BME280;6627;50.920;12.050;2023-08-06T02:31:01;98389.56;;;29.13;40.80
13124;BME280;6627;50.920;12.050;2023-08-06T02:33:30;98366.03;;;28.95;41.12
13124;BME280;6627;50.920;12.050;2023-08-06T02:36:02;98368.13;;;28.90;40.95
13124;BME280;6627;50.920;12.050;2023-08-06T02:38:36;98324.63;;;28.60;40.96
13124;BME280;6627;50.920;12.050;2023-08-06T02:41:11;98325.88;;;28.39;41.22
13124;BME280;6627;50.920;12.050;2023-08-06T02:43:42;98345.59;;;28.09;41.91
13124;BME280;6627;50.920;12.050;2023-08-06T02:46:15;98327.25;;;27.68;42.92
13124;BME280;6627;50.920;12.050;2023-08-06T02:48:50;98363.19;;;27.82;43.17
13124;BME280;6627;50.920;12.050;2023-08-06T02:51:22;98319.91;;;27.34;44.07
13124;BME280;6627;50.920;12.050;2023-08-06T02:53:55;98442.03;;;28.82;42.52
13124;BME280;6627;50.920;12.050;2023-08-06T02:56:24;98355.41;;;29.58;40.16
13124;BME280;6627;50.920;12.050;2023-08-06T02:58:52;98373.09;;;29.35;40.46
13124;BME280;6627;50.920;12.050;2023-08-06T03:01:25;98371.50;;;29.34;40.50
13124;BME280;6627;50.920;12.050;2023-08-06T03:03:59;98310.31;;;29.11;39.90
13124;BME280;6627;50.920;12.050;2023-08-06T03:06:29;98391.59;;;28.93;41.49
13124;BME280;6627;50.920;12.050;2023-08-06T03:09:06;98310.63;;;28.24;41.68
13124;BME280;6627;50.920;12.050;2023-08-06T03:11:36;98348.06;;;27.60;43.79
13124;BME280;6627;50.920;12.050;2023-08-06T03:14:06;98386.28;;;28.03;43.52
13124;BME280;6627;50.920;12.050;2023-08-06T03:16:38;98394.72;;;28.59;42.30
13124;BME280;6627;50.920;12.050;2023-08-06T03:19:11;98331.44;;;28.39;41.86
13124;BME280;6627;50.920;12.050;2023-08-06T03:21:39;98359.50;;;28.29;42.54
13124;BME280;6627;50.920;12.050;2023-08-06T03:24:10;98308.03;;;27.77;43.07
13124;BME280;6627;50.920;12.050;2023-08-06T03:26:43;98395.16;;;28.37;43.02
13124;BME280;6627;50.920;12.050;2023-08-06T03:29:14;98319.88;;;27.58;43.40
13124;BME280;6627;50.920;12.050;2023-08-06T03:31:47;98257.84;;;26.67;43.81
13124;BME280;6627;50.920;12.050;2023-08-06T03:34:19;98331.84;;;27.31;43.86
13124;BME280;6627;50.920;12.050;2023-08-06T03:36:52;98374.53;;;28.35;42.37
13124;BME280;6627;50.920;12.050;2023-08-06T03:39:22;98404.22;;;28.61;42.29
13124;BME280;6627;50.920;12.050;2023-08-06T03:41:56;98423.97;;;29.07;41.62
13124;BME280;6627;50.920;12.050;2023-08-06T03:44:28;98355.19;;;27.84;43.26
13124;BME280;6627;50.920;12.050;2023-08-06T03:46:58;98333.59;;;27.69;42.85
13124;BME280;6627;50.920;12.050;2023-08-06T03:49:33;98435.28;;;29.00;41.93
13124;BME280;6627;50.920;12.050;2023-08-06T03:52:07;98387.06;;;28.23;43.47
13124;BME280;6627;50.920;12.050;2023-08-06T03:54:39;98306.47;;;27.76;42.54
13124;BME280;6627;50.920;12.050;2023-08-06T03:57:15;98319.53;;;27.99;42.70
13124;BME280;6627;50.920;12.050;2023-08-06T03:59:49;98353.84;;;27.92;43.73
13124;BME280;6627;50.920;12.050;2023-08-06T04:02:22;98331.00;;;27.81;43.32
13124;BME280;6627;50.920;12.050;2023-08-06T04:04:53;98366.69;;;27.86;43.77
13124;BME280;6627;50.920;12.050;2023-08-06T04:07:26;98363.72;;;28.17;43.50
13124;BME280;6627;50.920;12.050;2023-08-06T04:10:03;98341.34;;;27.57;44.01
13124;BME280;6627;50.920;12.050;2023-08-06T04:12:33;98334.78;;;27.91;43.50
13124;BME280;6627;50.920;12.050;2023-08-06T04:15:08;98418.28;;;28.34;43.68
13124;BME280;6627;50.920;12.050;2023-08-06T04:17:39;98362.38;;;28.81;41.87
13124;BME280;6627;50.920;12.050;2023-08-06T04:20:11;98305.16;;;28.01;42.34
13124;BME280;6627;50.920;12.050;2023-08-06T04:22:42;98311.81;;;27.87;42.57
13124;BME280;6627;50.920;12.050;2023-08-06T04:25:17;98340.28;;;28.34;42.53
13124;BME280;6627;50.920;12.050;2023-08-06T04:27:50;98274.47;;;27.84;42.65
13124;BME280;6627;50.920;12.050;2023-08-06T04:30:22;98313.50;;;27.37;43.94
13124;BME280;6627;50.920;12.050;2023-08-06T04:32:56;98308.91;;;27.27;44.47
13124;BME280;6627;50.920;12.050;2023-08-06T04:35:27;98334.78;;;27.91;43.39
13124;BME280;6627;50.920;12.050;2023-08-06T04:38:01;98283.84;;;27.71;43.08
13124;BME280;6627;50.920;12.050;2023-08-06T04:40:33;98372.78;;;28.21;43.40
13124;BME280;6627;50.920;12.050;2023-08-06T04:43:05;98308.25;;;27.86;43.20
13124;BME280;6627;50.920;12.050;2023-08-06T04:45:38;98348.25;;;28.36;42.73
13124;BME280;6627;50.920;12.050;2023-08-06T04:48:06;98364.94;;;28.56;42.82
13124;BME280;6627;50.920;12.050;2023-08-06T04:50:35;98324.16;;;28.46;42.26
13124;BME280;6627;50.920;12.050;2023-08-06T04:53:07;98307.00;;;27.44;44.39
13124;BME280;6627;50.920;12.050;2023-08-06T04:55:44;98350.84;;;27.83;44.19
13124;BME280;6627;50.920;12.050;2023-08-06T04:58:17;98288.22;;;27.72;43.68
13124;BME280;6627;50.920;12.050;2023-08-06T05:00:50;98311.97;;;28.00;43.23
13124;BME280;6627;50.920;12.050;2023-08-06T05:03:24;98339.56;;;28.30;42.93
13124;BME280;6627;50.920;12.050;2023-08-06T05:05:53;98292.59;;;27.49;43.66
13124;BME280;6627;50.920;12.050;2023-08-06T05:08:25;98300.16;;;27.02;44.68
13124;BME280;6627;50.920;12.050;2023-08-06T05:10:55;98300.56;;;27.27;44.76
13124;BME280;6627;50.920;12.050;2023-08-06T05:13:27;98351.16;;;28.09;43.63
13124;BME280;6627;50.920;12.050;2023-08-06T05:16:00;98322.06;;;27.47;44.83
13124;BME280;6627;50.920;12.050;2023-08-06T05:18:34;98363.34;;;27.95;44.00
13124;BME280;6627;50.920;12.050;2023-08-06T05:21:08;98297.88;;;27.67;43.78
13124;BME280;6627;50.920;12.050;2023-08-06T05:23:40;98255.13;;;27.14;44.40
13124;BME280;6627;50.920;12.050;2023-08-06T05:26:14;98291.09;;;27.45;44.13
13124;BME280;6627;50.920;12.050;2023-08-06T05:28:47;98331.81;;;27.58;44.39
13124;BME280;6627;50.920;12.050;2023-08-06T05:31:20;98327.34;;;27.84;43.87
13124;BME280;6627;50.920;12.050;2023-08-06T05:33:49;98287.81;;;27.73;43.13
13124;BME280;6627;50.920;12.050;2023-08-06T05:36:25;98224.13;;;26.65;44.81
13124;BME280;6627;50.920;12.050;2023-08-06T05:38:55;98251.28;;;26.54;45.47
13124;BME280;6627;50.920;12.050;2023-08-06T05:41:28;98307.88;;;27.84;43.57
13124;BME280;6627;50.920;12.050;2023-08-06T05:44:05;98292.91;;;27.08;44.66
13124;BME280;6627;50.920;12.050;2023-08-06T05:46:38;98342.59;;;28.39;43.07
13124;BME280;6627;50.920;12.050;2023-08-06T05:49:16;98275.88;;;27.29;44.43
13124;BME280;6627;50.920;12.050;2023-08-06T05:51:51;98355.44;;;28.33;43.50
13124;BME280;6627;50.920;12.050;2023-08-06T05:54:26;98284.06;;;28.03;42.86
13124;BME280;6627;50.920;12.050;2023-08-06T05:57:05;98349.53;;;28.51;43.02
13124;BME280;6627;50.920;12.050;2023-08-06T05:59:34;98310.25;;;28.62;42.18
13124;BME280;6627;50.920;12.050;2023-08-06T06:02:10;98303.34;;;28.50;42.22
13124;BME280;6627;50.920;12.050;2023-08-06T06:04:43;98351.13;;;28.85;42.27
13124;BME280;6627;50.920;12.050;2023-08-06T06:07:16;98322.50;;;28.48;42.91
13124;BME280;6627;50.920;12.050;2023-08-06T06:10:00;98308.78;;;28.57;42.52
13124;BME280;6627;50.920;12.050;2023-08-06T06:12:34;98333.88;;;29.10;41.62
13124;BME280;6627;50.920;12.050;2023-08-06T06:15:14;98332.19;;;29.29;41.10
13124;BME280;6627;50.920;12.050;2023-08-06T06:17:48;98334.88;;;29.65;40.84
13124;BME280;6627;50.920;12.050;2023-08-06T06:20:23;98339.19;;;29.82;40.79
13124;BME280;6627;50.920;12.050;2023-08-06T06:22:52;98283.63;;;28.77;41.83
13124;BME280;6627;50.920;12.050;2023-08-06T06:25:29;98241.72;;;27.92;42.85
13124;BME280;6627;50.920;12.050;2023-08-06T06:28:01;98271.94;;;27.94;43.28
13124;BME280;6627;50.920;12.050;2023-08-06T06:30:31;98357.69;;;28.95;42.59
13124;BME280;6627;50.920;12.050;2023-08-06T06:33:04;98231.34;;;27.92;42.87
13124;BME280;6627;50.920;12.050;2023-08-06T06:35:34;98376.22;;;29.70;41.72
13124;BME280;6627;50.920;12.050;2023-08-06T06:38:08;98218.47;;;28.71;41.33
13124;BME280;6627;50.920;12.050;2023-08-06T06:40:37;98331.88;;;29.88;40.43
13124;BME280;6627;50.920;12.050;2023-08-06T06:43:12;98220.63;;;28.11;42.28
13124;BME280;6627;50.920;12.050;2023-08-06T06:45:52;98283.88;;;28.30;42.60
13124;BME280;6627;50.920;12.050;2023-08-06T06:48:28;98246.81;;;28.13;42.94
13124;BME280;6627;50.920;12.050;2023-08-06T06:51:04;98301.22;;;27.35;45.02
13124;BME280;6627;50.920;12.050;2023-08-06T06:53:39;98291.59;;;28.43;42.71
13124;BME280;6627;50.920;12.050;2023-08-06T06:56:12;98310.94;;;28.30;43.36
13124;BME280;6627;50.920;12.050;2023-08-06T06:58:49;98295.47;;;28.09;43.28
13124;BME280;6627;50.920;12.050;2023-08-06T07:01:24;98275.97;;;27.89;43.48
13124;BME280;6627;50.920;12.050;2023-08-06T07:03:53;98286.47;;;27.81;43.76
13124;BME280;6627;50.920;12.050;2023-08-06T07:06:22;98320.50;;;28.49;43.16
13124;BME280;6627;50.920;12.050;2023-08-06T07:08:53;98240.19;;;27.48;43.93
13124;BME280;6627;50.920;12.050;2023-08-06T07:11:26;98289.69;;;28.00;43.37
13124;BME280;6627;50.920;12.050;2023-08-06T07:14:02;98326.59;;;28.04;43.83
13124;BME280;6627;50.920;12.050;2023-08-06T07:16:34;98247.16;;;28.35;42.12
13124;BME280;6627;50.920;12.050;2023-08-06T07:19:12;98248.56;;;28.07;42.48
13124;BME280;6627;50.920;12.050;2023-08-06T07:21:41;98284.50;;;28.74;41.57
13124;BME280;6627;50.920;12.050;2023-08-06T07:24:11;98215.81;;;28.31;41.57
13124;BME280;6627;50.920;12.050;2023-08-06T07:26:44;98247.03;;;28.43;41.94
13124;BME280;6627;50.920;12.050;2023-08-06T07:29:13;98254.00;;;28.83;41.00
13124;BME280;6627;50.920;12.050;2023-08-06T07:31:55;98222.88;;;27.80;42.91
13124;BME280;6627;50.920;12.050;2023-08-06T07:34:31;98249.59;;;28.33;42.22
13124;BME280;6627;50.920;12.050;2023-08-06T07:37:07;98308.50;;;28.68;42.17
13124;BME280;6627;50.920;12.050;2023-08-06T07:39:42;98203.38;;;27.60;42.67
13124;BME280;6627;50.920;12.050;2023-08-06T07:42:19;98238.41;;;28.17;41.98
13124;BME280;6627;50.920;12.050;2023-08-06T07:44:55;98241.72;;;28.28;41.76
13124;BME280;6627;50.920;12.050;2023-08-06T07:47:29;98291.38;;;28.86;41.39
13124;BME280;6627;50.920;12.050;2023-08-06T07:50:02;98206.09;;;27.83;42.14
13124;BME280;6627;50.920;12.050;2023-08-06T07:52:32;98333.34;;;28.62;42.66
13124;BME280;6627;50.920;12.050;2023-08-06T07:55:04;98298.56;;;29.03;41.17
13124;BME280;6627;50.920;12.050;2023-08-06T07:57:39;98254.72;;;28.87;41.17
13124;BME280;6627;50.920;12.050;2023-08-06T08:00:10;98285.38;;;28.87;41.58
13124;BME280;6627;50.920;12.050;2023-08-06T08:02:46;98274.56;;;28.73;40.94
13124;BME280;6627;50.920;12.050;2023-08-06T08:05:19;98261.03;;;28.55;41.81
13124;BME280;6627;50.920;12.050;2023-08-06T08:07:47;98272.03;;;28.62;41.70
13124;BME280;6627;50.920;12.050;2023-08-06T08:10:22;98184.63;;;27.64;42.73
13124;BME280;6627;50.920;12.050;2023-08-06T08:12:57;98270.13;;;29.25;40.37
13124;BME280;6627;50.920;12.050;2023-08-06T08:15:35;98191.66;;;28.61;40.63
13124;BME280;6627;50.920;12.050;2023-08-06T08:18:08;98226.91;;;28.67;41.14
13124;BME280;6627;50.920;12.050;2023-08-06T08:20:36;98222.63;;;29.28;39.90
13124;BME280;6627;50.920;12.050;2023-08-06T08:23:07;98304.22;;;30.07;39.33
13124;BME280;6627;50.920;12.050;2023-08-06T08:25:40;98274.22;;;29.95;38.95
13124;BME280;6627;50.920;12.050;2023-08-06T08:28:14;98208.91;;;29.05;40.13
13124;BME280;6627;50.920;12.050;2023-08-06T08:30:44;98237.03;;;29.56;39.04
13124;BME280;6627;50.920;12.050;2023-08-06T08:33:16;98137.16;;;28.60;39.80
13124;BME280;6627;50.920;12.050;2023-08-06T08:35:46;98140.59;;;28.80;39.61
13124;BME280;6627;50.920;12.050;2023-08-06T08:38:20;98138.81;;;29.32;38.30
13124;BME280;6627;50.920;12.050;2023-08-06T08:40:53;98170.75;;;28.69;40.02
13124;BME280;6627;50.920;12.050;2023-08-06T08:43:30;98159.34;;;28.47;40.62
13124;BME280;6627;50.920;12.050;2023-08-06T08:46:05;98177.03;;;28.57;40.73
13124;BME280;6627;50.920;12.050;2023-08-06T08:48:36;98143.72;;;28.99;39.40
13124;BME280;6627;50.920;12.050;2023-08-06T08:51:09;98180.84;;;28.63;40.55
13124;BME280;6627;50.920;12.050;2023-08-06T08:53:49;98189.97;;;28.63;40.49
13124;BME280;6627;50.920;12.050;2023-08-06T08:56:25;98222.84;;;29.05;40.45
13124;BME280;6627;50.920;12.050;2023-08-06T08:58:54;98189.22;;;28.96;40.18
13124;BME280;6627;50.920;12.050;2023-08-06T09:01:28;98183.47;;;28.54;40.86
13124;BME280;6627;50.920;12.050;2023-08-06T09:04:05;98228.75;;;28.74;41.40
13124;BME280;6627;50.920;12.050;2023-08-06T09:06:38;98190.59;;;28.38;41.58
13124;BME280;6627;50.920;12.050;2023-08-06T09:09:15;98112.94;;;27.52;41.96
13124;BME280;6627;50.920;12.050;2023-08-06T09:11:59;98162.31;;;28.04;42.06
13124;BME280;6627;50.920;12.050;2023-08-06T09:14:32;98228.16;;;28.83;41.30
13124;BME280;6627;50.920;12.050;2023-08-06T09:17:09;98263.94;;;30.21;39.20
13124;BME280;6627;50.920;12.050;2023-08-06T09:19:42;98174.88;;;29.39;39.32
13124;BME280;6627;50.920;12.050;2023-08-06T09:22:17;98149.69;;;28.35;40.86
13124;BME280;6627;50.920;12.050;2023-08-06T09:24:50;98194.81;;;28.96;40.31
13124;BME280;6627;50.920;12.050;2023-08-06T09:27:23;98286.28;;;30.21;39.04
13124;BME280;6627;50.920;12.050;2023-08-06T09:29:57;98198.41;;;30.09;38.43
13124;BME280;6627;50.920;12.050;2023-08-06T09:32:33;98170.88;;;29.11;39.81
13124;BME280;6627;50.920;12.050;2023-08-06T09:35:19;98168.97;;;29.08;39.56
13124;BME280;6627;50.920;12.050;2023-08-06T09:38:06;98139.94;;;29.63;38.87
13124;BME280;6627;50.920;12.050;2023-08-06T09:40:40;98182.66;;;30.40;37.62
13124;BME280;6627;50.920;12.050;2023-08-06T09:43:12;98151.25;;;29.98;37.63
13124;BME280;6627;50.920;12.050;2023-08-06T09:45:46;98066.28;;;29.32;37.99
13124;BME280;6627;50.920;12.050;2023-08-06T09:48:18;98180.91;;;30.47;37.39
13124;BME280;6627;50.920;12.050;2023-08-06T09:50:54;98185.34;;;30.57;36.89
13124;BME280;6627;50.920;12.050;2023-08-06T09:53:30;98169.78;;;30.05;38.15
13124;BME280;6627;50.920;12.050;2023-08-06T09:56:05;98068.34;;;28.57;39.71
13124;BME280;6627;50.920;12.050;2023-08-06T09:58:44;98094.44;;;28.96;39.19
13124;BME280;6627;50.920;12.050;2023-08-06T10:01:12;98110.63;;;28.84;40.00
13124;BME280;6627;50.920;12.050;2023-08-06T10:03:50;98163.88;;;30.54;37.71
13124;BME280;6627;50.920;12.050;2023-08-06T10:06:28;98081.22;;;29.67;37.85
13124;BME280;6627;50.920;12.050;2023-08-06T10:08:58;98068.75;;;29.42;38.27
13124;BME280;6627;50.920;12.050;2023-08-06T10:11:30;98142.16;;;29.56;38.40
13124;BME280;6627;50.920;12.050;2023-08-06T10:14:16;98022.38;;;29.07;38.09
13124;BME280;6627;50.920;12.050;2023-08-06T10:16:57;98087.03;;;29.18;38.70
13124;BME280;6627;50.920;12.050;2023-08-06T10:19:32;98126.56;;;29.97;37.93
13124;BME280;6627;50.920;12.050;2023-08-06T10:22:14;98081.13;;;29.71;38.07
13124;BME280;6627;50.920;12.050;2023-08-06T10:24:52;98004.81;;;28.94;38.27
13124;BME280;6627;50.920;12.050;2023-08-06T10:27:30;98074.72;;;29.70;37.88
13124;BME280;6627;50.920;12.050;2023-08-06T10:30:22;98000.13;;;28.90;38.78
13124;BME280;6627;50.920;12.050;2023-08-06T10:33:00;98051.91;;;29.33;38.59
13124;BME280;6627;50.920;12.050;2023-08-06T10:35:41;98215.53;;;31.22;36.40
13124;BME280;6627;50.920;12.050;2023-08-06T10:38:15;98121.75;;;30.96;36.12
13124;BME280;6627;50.920;12.050;2023-08-06T10:41:01;98090.53;;;30.50;36.46
13124;BME280;6627;50.920;12.050;2023-08-06T10:43:37;98095.84;;;30.82;36.09
13124;BME280;6627;50.920;12.050;2023-08-06T10:46:10;98116.22;;;30.70;36.68
13124;BME280;6627;50.920;12.050;2023-08-06T10:48:46;98024.38;;;29.86;36.98
13124;BME280;6627;50.920;12.050;2023-08-06T10:51:18;98017.50;;;29.11;38.85
13124;BME280;6627;50.920;12.050;2023-08-06T10:53:51;98078.78;;;30.20;37.35
13124;BME280;6627;50.920;12.050;2023-08-06T10:56:25;98096.50;;;30.86;36.38
13124;BME280;6627;50.920;12.050;2023-08-06T10:59:00;98065.03;;;31.39;34.47
13124;BME280;6627;50.920;12.050;2023-08-06T11:01:39;97933.47;;;29.85;36.08
13124;BME280;6627;50.920;12.050;2023-08-06T11:04:13;98012.09;;;30.66;35.80
13124;BME280;6627;50.920;12.050;2023-08-06T11:06:53;98087.00;;;31.50;34.79
13124;BME280;6627;50.920;12.050;2023-08-06T11:09:21;98079.34;;;31.41;35.00
13124;BME280;6627;50.920;12.050;2023-08-06T11:11:50;97978.97;;;31.52;33.46
13124;BME280;6627;50.920;12.050;2023-08-06T11:14:21;98025.94;;;31.98;33.05
13124;BME280;6627;50.920;12.050;2023-08-06T11:16:50;98027.59;;;32.54;32.62
13124;BME280;6627;50.920;12.050;2023-08-06T11:19:30;97960.25;;;31.99;33.33
13124;BME280;6627;50.920;12.050;2023-08-06T11:22:07;97940.59;;;31.71;33.08
13124;BME280;6627;50.920;12.050;2023-08-06T11:24:46;98029.09;;;32.18;34.01
13124;BME280;6627;50.920;12.050;2023-08-06T11:27:17;97914.03;;;31.35;33.64
13124;BME280;6627;50.920;12.050;2023-08-06T11:29:47;98012.56;;;31.93;33.78
13124;BME280;6627;50.920;12.050;2023-08-06T11:32:23;98120.09;;;33.73;32.72
13124;BME280;6627;50.920;12.050;2023-08-06T11:35:11;97867.75;;;31.53;32.94
13124;BME280;6627;50.920;12.050;2023-08-06T11:37:47;98010.72;;;32.17;33.92
13124;BME280;6627;50.920;12.050;2023-08-06T11:40:29;97908.50;;;31.54;33.45
13124;BME280;6627;50.920;12.050;2023-08-06T11:43:06;98077.78;;;33.16;33.40
13124;BME280;6627;50.920;12.050;2023-08-06T11:45:36;97908.28;;;32.34;32.49
13124;BME280;6627;50.920;12.050;2023-08-06T11:48:07;97963.41;;;32.19;33.21
13124;BME280;6627;50.920;12.050;2023-08-06T11:50:41;98077.44;;;33.32;33.03
13124;BME280;6627;50.920;12.050;2023-08-06T11:53:19;97806.75;;;31.38;33.02
13124;BME280;6627;50.920;12.050;2023-08-06T11:55:54;97967.00;;;32.65;32.53
13124;BME280;6627;50.920;12.050;2023-08-06T11:58:24;97845.72;;;32.01;32.54
13124;BME280;6627;50.920;12.050;2023-08-06T12:01:01;97867.75;;;31.44;33.39
13124;BME280;6627;50.920;12.050;2023-08-06T12:03:43;98045.38;;;33.06;33.02
13124;BME280;6627;50.920;12.050;2023-08-06T12:06:13;97863.31;;;31.92;33.02
13124;BME280;6627;50.920;12.050;2023-08-06T12:08:50;97847.75;;;32.19;32.29
13124;BME280;6627;50.920;12.050;2023-08-06T12:11:26;97822.84;;;31.65;33.12
13124;BME280;6627;50.920;12.050;2023-08-06T12:13:59;97827.25;;;31.26;33.73
13124;BME280;6627;50.920;12.050;2023-08-06T12:16:30;97872.09;;;31.45;34.16
13124;BME280;6627;50.920;12.050;2023-08-06T12:18:59;97826.81;;;30.34;35.11
13124;BME280;6627;50.920;12.050;2023-08-06T12:21:31;97772.75;;;29.62;35.91
13124;BME280;6627;50.920;12.050;2023-08-06T12:24:11;97820.94;;;29.28;36.95
13124;BME280;6627;50.920;12.050;2023-08-06T12:26:42;97920.34;;;29.22;39.40
13124;BME280;6627;50.920;12.050;2023-08-06T12:29:17;97952.25;;;29.21;39.70
13124;BME280;6627;50.920;12.050;2023-08-06T12:31:57;97902.06;;;28.54;40.48
13124;BME280;6627;50.920;12.050;2023-08-06T12:34:27;98107.06;;;31.04;38.22
13124;BME280;6627;50.920;12.050;2023-08-06T12:37:04;98070.09;;;31.09;37.83
13124;BME280;6627;50.920;12.050;2023-08-06T12:39:40;97957.19;;;30.72;36.96
13124;BME280;6627;50.920;12.050;2023-08-06T12:42:10;98084.69;;;31.48;37.33
13124;BME280;6627;50.920;12.050;2023-08-06T12:44:43;98030.94;;;30.53;39.21
13124;BME280;6627;50.920;12.050;2023-08-06T12:47:18;98151.97;;;31.88;38.61
13124;BME280;6627;50.920;12.050;2023-08-06T12:49:56;98081.16;;;31.13;39.02
13124;BME280;6627;50.920;12.050;2023-08-06T12:52:30;97917.66;;;29.44;39.32
13124;BME280;6627;50.920;12.050;2023-08-06T12:55:07;98001.16;;;30.94;37.84
13124;BME280;6627;50.920;12.050;2023-08-06T12:57:38;98074.81;;;31.34;37.36
13124;BME280;6627;50.920;12.050;2023-08-06T13:00:09;98030.47;;;31.64;36.45
13124;BME280;6627;50.920;12.050;2023-08-06T13:02:45;97825.63;;;29.31;38.32
13124;BME280;6627;50.920;12.050;2023-08-06T13:05:13;97961.88;;;30.06;38.24
13124;BME280;6627;50.920;12.050;2023-08-06T13:07:57;97967.22;;;30.13;38.33
13124;BME280;6627;50.920;12.050;2023-08-06T13:10:28;97981.25;;;30.92;37.56
13124;BME280;6627;50.920;12.050;2023-08-06T13:13:02;97971.56;;;31.36;35.85
13124;BME280;6627;50.920;12.050;2023-08-06T13:15:33;97920.09;;;31.03;36.18
13124;BME280;6627;50.920;12.050;2023-08-06T13:18:10;97932.94;;;30.69;37.02
13124;BME280;6627;50.920;12.050;2023-08-06T13:20:39;97878.78;;;30.32;37.18
13124;BME280;6627;50.920;12.050;2023-08-06T13:23:11;97912.78;;;30.52;37.32
13124;BME280;6627;50.920;12.050;2023-08-06T13:25:54;98028.31;;;31.68;36.64
13124;BME280;6627;50.920;12.050;2023-08-06T13:28:25;97978.19;;;30.99;37.50
13124;BME280;6627;50.920;12.050;2023-08-06T13:31:01;97960.19;;;30.21;38.34
13124;BME280;6627;50.920;12.050;2023-08-06T13:33:30;98089.50;;;32.10;36.78